Time;durP1;ratioP1;P1;durP2;ratioP2;P2;SDS_P1;SDS_P2;PMS_P1;PMS_P2;Temp;Humidity;BMP_temperature;BMP_pressure;BME280_temperature;BME280_humidity;BME280_pressure;Samples;Min_cycle;Max_cycle;Signal;HPM_P1;HPM_P2
2022/12/18 00:00:14;;;;;;;124.43;43.63;;;-3.00;99.90;;;;;;5075245;28;20044;-78
2022/12/18 00:03:00;;;;;;;123.75;42.83;;;-3.00;99.90;;;;;;5076493;28;20139;-82
2022/12/18 00:05:52;;;;;;;113.63;42.60;;;-3.00;99.90;;;;;;5095003;28;20059;-78
2022/12/18 00:08:38;;;;;;;115.40;39.75;;;-3.00;99.90;;;;;;5078928;28;20488;-79
2022/12/18 00:11:27;;;;;;;121.70;42.30;;;-2.90;99.90;;;;;;5093003;28;20052;-78
2022/12/18 00:14:13;;;;;;;119.55;41.03;;;-2.90;99.90;;;;;;5074993;28;20051;-77
2022/12/18 00:17:00;;;;;;;114.25;41.97;;;-3.00;99.90;;;;;;5077032;28;20051;-83
2022/12/18 00:19:46;;;;;;;119.82;42.42;;;-3.00;99.90;;;;;;5082445;28;20052;-77
2022/12/18 00:22:32;;;;;;;125.57;43.33;;;-3.10;99.90;;;;;;5077688;28;20491;-81
2022/12/18 00:25:18;;;;;;;116.15;42.22;;;-3.00;99.90;;;;;;5077673;28;20048;-83
2022/12/18 00:28:05;;;;;;;116.28;42.25;;;-3.00;99.90;;;;;;5074615;28;20139;-77
2022/12/18 00:31:00;;;;;;;120.97;44.35;;;-3.00;99.90;;;;;;5074841;28;20055;-78
2022/12/18 00:33:46;;;;;;;126.18;48.10;;;-3.10;99.90;;;;;;5097493;28;20052;-78
2022/12/18 00:36:34;;;;;;;130.13;46.60;;;-3.10;99.90;;;;;;5075425;28;20048;-77
2022/12/18 00:39:20;;;;;;;147.40;47.90;;;-3.10;99.90;;;;;;5076151;28;20044;-83
2022/12/18 00:45:14;;;;;;;130.85;45.10;;;-3.10;99.90;;;;;;5092506;28;20052;-78
2022/12/18 00:48:00;;;;;;;132.40;44.65;;;-3.10;99.90;;;;;;5080502;28;20044;-83
2022/12/18 00:50:50;;;;;;;139.50;46.45;;;-3.10;99.90;;;;;;5075699;28;20415;-76
2022/12/18 00:53:36;;;;;;;137.15;46.92;;;-3.10;99.90;;;;;;5074759;28;20647;-84
2022/12/18 00:56:23;;;;;;;127.35;44.45;;;-3.10;99.90;;;;;;5093008;28;20048;-78
2022/12/18 00:59:09;;;;;;;136.00;46.47;;;-3.10;99.90;;;;;;5074104;28;20055;-77
2022/12/18 01:01:55;;;;;;;134.13;47.42;;;-3.10;99.90;;;;;;5075629;28;20087;-80
2022/12/18 01:04:41;;;;;;;126.25;43.53;;;-3.10;99.90;;;;;;5097798;28;20566;-83
2022/12/18 01:07:28;;;;;;;123.13;45.05;;;-3.10;99.90;;;;;;5079439;28;20048;-82
2022/12/18 01:10:14;;;;;;;134.43;46.65;;;-3.10;99.90;;;;;;5064729;28;20468;-82
2022/12/18 01:13:00;;;;;;;135.88;44.67;;;-3.10;99.90;;;;;;5064110;28;20109;-78
2022/12/18 01:15:50;;;;;;;129.63;45.20;;;-3.20;99.90;;;;;;5094716;28;20044;-84
2022/12/18 01:18:36;;;;;;;123.63;46.10;;;-3.10;99.90;;;;;;5095448;28;20062;-77
2022/12/18 01:21:23;;;;;;;125.70;42.25;;;-3.20;99.90;;;;;;5074278;28;20113;-83
2022/12/18 01:24:12;;;;;;;129.77;44.38;;;-3.20;99.90;;;;;;5075866;28;20032;-84
2022/12/18 01:26:58;;;;;;;122.93;42.78;;;-3.20;99.90;;;;;;5097463;28;20149;-78
2022/12/18 01:29:44;;;;;;;129.07;44.78;;;-3.20;99.90;;;;;;5073694;28;20112;-84
2022/12/18 01:32:31;;;;;;;120.47;43.22;;;-3.20;99.90;;;;;;5101863;28;20483;-81
2022/12/18 01:35:17;;;;;;;129.35;44.22;;;-3.20;99.90;;;;;;5090683;28;20638;-82
2022/12/18 01:38:03;;;;;;;123.85;43.65;;;-3.20;99.90;;;;;;5060238;28;20087;-77
2022/12/18 01:40:56;;;;;;;135.75;45.70;;;-3.30;99.90;;;;;;5072583;28;20043;-81
2022/12/18 01:43:50;;;;;;;128.52;41.97;;;-3.30;99.90;;;;;;5073981;28;20048;-84
2022/12/18 01:46:36;;;;;;;141.82;45.10;;;-3.30;99.90;;;;;;5078214;28;20399;-84
2022/12/18 01:49:22;;;;;;;137.95;45.47;;;-3.30;99.90;;;;;;5098266;28;20104;-83
2022/12/18 01:52:09;;;;;;;130.20;46.90;;;-3.30;99.90;;;;;;5091380;28;20048;-84
2022/12/18 01:54:56;;;;;;;135.35;44.60;;;-3.30;99.90;;;;;;5090626;28;20055;-81
2022/12/18 01:57:42;;;;;;;126.28;42.00;;;-3.30;99.90;;;;;;5092019;28;20079;-84
2022/12/18 02:00:29;;;;;;;124.63;42.75;;;-3.30;99.90;;;;;;5097087;28;20082;-83
2022/12/18 02:03:15;;;;;;;116.80;41.08;;;-3.30;99.90;;;;;;5091445;28;20491;-80
2022/12/18 02:06:17;;;;;;;130.85;42.83;;;-3.30;99.90;;;;;;5091256;28;20143;-78
2022/12/18 02:09:15;;;;;;;122.60;42.42;;;-3.40;99.90;;;;;;5073515;28;20054;-79
2022/12/18 02:12:16;;;;;;;113.47;41.85;;;-3.40;99.90;;;;;;5096674;28;20430;-83
2022/12/18 02:15:27;;;;;;;114.40;41.17;;;-3.50;99.90;;;;;;5090389;28;20074;-79
2022/12/18 02:18:23;;;;;;;117.90;42.78;;;-3.50;99.90;;;;;;5072846;28;20519;-81
2022/12/18 02:21:31;;;;;;;116.43;39.13;;;-3.50;99.90;;;;;;5091058;28;20055;-82
2022/12/18 02:24:51;;;;;;;135.68;41.65;;;-3.60;99.90;;;;;;5073140;28;20411;-83
2022/12/18 02:27:40;;;;;;;129.73;42.65;;;-3.60;99.90;;;;;;5098179;28;20040;-80
2022/12/18 02:30:30;;;;;;;115.53;40.58;;;-3.70;99.90;;;;;;5071771;28;20055;-82
2022/12/18 02:33:19;;;;;;;118.90;41.05;;;-3.70;99.90;;;;;;5095779;28;20078;-76
2022/12/18 02:36:06;;;;;;;123.30;40.85;;;-3.70;99.90;;;;;;5091614;28;20044;-77
2022/12/18 02:38:54;;;;;;;148.32;47.03;;;-3.80;99.90;;;;;;5062748;28;20055;-81
2022/12/18 02:41:41;;;;;;;136.10;43.72;;;-3.80;99.90;;;;;;5090281;28;20085;-83
2022/12/18 02:44:27;;;;;;;121.50;43.28;;;-3.80;99.90;;;;;;5094042;28;20051;-77
2022/12/18 02:47:15;;;;;;;128.20;45.22;;;-3.80;99.90;;;;;;5072346;28;20173;-78
2022/12/18 02:50:02;;;;;;;115.38;39.78;;;-3.80;99.90;;;;;;5089743;28;20610;-84
2022/12/18 02:53:39;;;;;;;106.78;38.90;;;-3.90;99.90;;;;;;5072503;28;20467;-78
2022/12/18 02:56:32;;;;;;;126.68;42.88;;;-3.90;99.90;;;;;;5060079;28;20055;-82
2022/12/18 02:59:42;;;;;;;124.80;42.72;;;-3.90;99.90;;;;;;5099128;28;20066;-77
2022/12/18 03:02:47;;;;;;;113.65;34.95;;;-3.90;99.90;;;;;;5070842;28;20056;-78
2022/12/18 03:05:43;;;;;;;119.00;39.42;;;-3.90;99.90;;;;;;5090393;28;20527;-76
2022/12/18 03:08:34;;;;;;;127.45;40.58;;;-4.00;99.90;;;;;;5090483;28;20044;-78
2022/12/18 03:12:22;;;;;;;111.07;40.75;;;-4.00;99.90;;;;;;5076613;28;20054;-83
2022/12/18 03:14:32;;;;;;;112.35;38.28;;;-4.00;99.90;;;;;;5093864;28;20048;-80
2022/12/18 03:17:22;;;;;;;123.28;38.78;;;-4.00;99.90;;;;;;5074732;28;20530;-80
2022/12/18 03:20:14;;;;;;;129.63;40.90;;;-4.00;99.90;;;;;;5092556;28;20048;-77
2022/12/18 03:23:09;;;;;;;112.65;38.40;;;-4.10;99.90;;;;;;5095486;28;20519;-79
2022/12/18 03:26:01;;;;;;;111.53;38.33;;;-4.00;99.90;;;;;;5090501;28;20055;-83
2022/12/18 03:28:51;;;;;;;111.60;36.03;;;-4.00;99.90;;;;;;5077436;28;20094;-78
2022/12/18 03:31:41;;;;;;;103.32;36.95;;;-4.10;99.90;;;;;;5090465;28;20726;-78
2022/12/18 03:34:32;;;;;;;110.70;38.28;;;-4.10;99.90;;;;;;5090289;28;20510;-78
2022/12/18 03:37:18;;;;;;;120.13;38.65;;;-4.00;99.90;;;;;;5089782;28;20388;-76
2022/12/18 03:40:05;;;;;;;108.82;36.60;;;-4.00;99.90;;;;;;5081493;28;20143;-77
2022/12/18 03:42:59;;;;;;;118.05;39.25;;;-4.00;99.90;;;;;;5097050;28;20083;-75
2022/12/18 03:45:54;;;;;;;110.93;38.30;;;-4.00;99.90;;;;;;5092640;28;20076;-79
2022/12/18 03:48:51;;;;;;;99.30;37.72;;;-4.10;99.90;;;;;;5088487;28;20408;-76
2022/12/18 03:51:52;;;;;;;116.18;39.33;;;-4.10;99.90;;;;;;5072066;28;20055;-79
2022/12/18 03:54:40;;;;;;;110.47;36.33;;;-4.10;99.90;;;;;;5092016;28;20411;-79
2022/12/18 03:57:30;;;;;;;116.38;40.70;;;-4.10;99.90;;;;;;5080090;28;20055;-79
2022/12/18 04:00:18;;;;;;;113.80;40.28;;;-4.20;99.90;;;;;;5093999;28;20522;-78
2022/12/18 04:03:05;;;;;;;100.88;36.55;;;-4.20;99.90;;;;;;5093818;28;20144;-83
2022/12/18 04:05:54;;;;;;;97.80;36.95;;;-4.30;99.90;;;;;;5075112;28;20097;-82
2022/12/18 04:08:41;;;;;;;101.72;35.20;;;-4.30;99.90;;;;;;5082325;28;20048;-77
2022/12/18 04:11:27;;;;;;;107.45;38.50;;;-4.30;99.90;;;;;;5097045;28;20052;-84
2022/12/18 04:14:14;;;;;;;95.57;35.28;;;-4.40;99.90;;;;;;5080231;28;20048;-77
2022/12/18 04:17:02;;;;;;;96.50;38.13;;;-4.40;99.90;;;;;;5074774;28;20040;-79
2022/12/18 04:19:48;;;;;;;96.15;37.13;;;-4.50;99.90;;;;;;5074981;28;20431;-77
2022/12/18 04:22:35;;;;;;;103.80;37.70;;;-4.50;99.90;;;;;;5074687;28;20056;-80
2022/12/18 04:25:21;;;;;;;106.38;39.67;;;-4.60;99.90;;;;;;5092848;28;20043;-83
2022/12/18 04:28:07;;;;;;;103.85;35.80;;;-4.60;99.90;;;;;;5099970;28;20048;-84
2022/12/18 04:30:53;;;;;;;104.85;35.03;;;-4.60;99.90;;;;;;5095546;28;20043;-81
2022/12/18 04:33:39;;;;;;;106.53;38.33;;;-4.70;99.90;;;;;;5061852;28;20109;-83
2022/12/18 04:36:26;;;;;;;93.68;36.25;;;-4.70;99.90;;;;;;5092786;28;20495;-77
2022/12/18 04:39:12;;;;;;;100.85;36.67;;;-4.70;99.90;;;;;;5059936;28;20385;-77
2022/12/18 04:41:59;;;;;;;105.78;37.70;;;-4.70;99.90;;;;;;5093003;28;20066;-78
2022/12/18 04:44:45;;;;;;;103.50;39.08;;;-4.80;99.90;;;;;;5101138;28;20048;-78
2022/12/18 04:47:32;;;;;;;103.32;36.65;;;-4.80;99.90;;;;;;5092957;28;20048;-76
2022/12/18 04:50:18;;;;;;;112.35;38.60;;;-4.80;99.90;;;;;;5081550;28;20097;-84
2022/12/18 04:53:04;;;;;;;99.65;38.92;;;-4.80;99.90;;;;;;5092926;28;20052;-80
2022/12/18 04:55:50;;;;;;;102.00;36.80;;;-4.80;99.90;;;;;;5073692;28;20048;-81
2022/12/18 04:58:38;;;;;;;96.97;36.28;;;-4.80;99.90;;;;;;5080733;28;20051;-78
2022/12/18 05:01:25;;;;;;;104.00;35.38;;;-4.80;99.90;;;;;;5073914;28;20088;-82
2022/12/18 05:04:11;;;;;;;104.97;37.30;;;-4.80;99.90;;;;;;5092015;28;20418;-83
2022/12/18 05:06:57;;;;;;;108.40;37.30;;;-4.80;99.90;;;;;;5073763;28;20067;-84
2022/12/18 05:09:43;;;;;;;105.60;37.17;;;-4.70;99.90;;;;;;5091991;28;20048;-79
2022/12/18 05:12:31;;;;;;;100.88;37.45;;;-4.70;99.90;;;;;;5079028;28;20055;-85
2022/12/18 05:15:17;;;;;;;104.93;37.22;;;-4.70;99.90;;;;;;5092541;28;20056;-82
2022/12/18 05:18:04;;;;;;;92.32;33.65;;;-4.80;99.90;;;;;;5088433;28;20044;-81
2022/12/18 05:20:51;;;;;;;107.20;39.28;;;-4.70;99.90;;;;;;5092243;28;20040;-77
2022/12/18 05:23:38;;;;;;;93.05;34.90;;;-4.80;99.90;;;;;;5092261;28;20052;-77
2022/12/18 05:26:24;;;;;;;93.70;35.50;;;-4.80;99.90;;;;;;5097328;28;20044;-83
2022/12/18 05:29:12;;;;;;;97.70;34.03;;;-4.80;99.90;;;;;;5075281;28;20048;-79
2022/12/18 05:31:58;;;;;;;91.88;33.10;;;-4.90;99.90;;;;;;5093838;28;20817;-79
2022/12/18 05:34:44;;;;;;;94.88;34.95;;;-4.90;99.90;;;;;;5090806;28;20089;-78
2022/12/18 05:37:30;;;;;;;92.32;34.30;;;-4.80;99.90;;;;;;5092759;28;20040;-85
2022/12/18 05:40:16;;;;;;;84.80;32.85;;;-4.90;99.90;;;;;;5078753;28;20074;-85
2022/12/18 05:43:03;;;;;;;82.63;32.13;;;-4.90;99.90;;;;;;5059442;28;20519;-84
2022/12/18 05:45:50;;;;;;;83.47;30.58;;;-4.90;99.90;;;;;;5097952;28;20068;-81
2022/12/18 05:48:36;;;;;;;84.70;32.60;;;-4.90;99.90;;;;;;5075626;28;20048;-78
2022/12/18 05:51:23;;;;;;;78.00;29.92;;;-4.80;99.90;;;;;;5091805;28;20607;-84
2022/12/18 05:54:09;;;;;;;79.57;30.83;;;-4.80;99.90;;;;;;5074908;28;20059;-83
2022/12/18 05:56:55;;;;;;;86.60;31.42;;;-4.80;99.90;;;;;;5092773;28;20116;-81
2022/12/18 05:59:41;;;;;;;70.10;27.60;;;-4.80;99.90;;;;;;5073329;28;20048;-83
2022/12/18 06:02:27;;;;;;;71.13;28.95;;;-4.80;99.90;;;;;;5064743;28;20051;-84
2022/12/18 06:05:13;;;;;;;83.35;32.55;;;-4.80;99.90;;;;;;5057139;28;20048;-86
2022/12/18 06:07:59;;;;;;;72.05;28.05;;;-4.90;99.90;;;;;;5094397;28;20527;-85
2022/12/18 06:10:51;;;;;;;74.68;30.60;;;-4.90;99.90;;;;;;5097721;28;20062;-78
2022/12/18 06:13:38;;;;;;;73.70;27.63;;;-4.90;99.90;;;;;;5091536;28;20044;-78
2022/12/18 06:16:24;;;;;;;64.93;27.25;;;-4.90;99.90;;;;;;5090454;28;20097;-77
2022/12/18 06:19:15;;;;;;;69.85;28.98;;;-4.90;99.90;;;;;;5090994;28;20048;-78
2022/12/18 06:22:01;;;;;;;68.63;27.05;;;-4.90;99.90;;;;;;5076430;28;20116;-85
2022/12/18 06:24:47;;;;;;;68.95;26.52;;;-4.90;99.90;;;;;;5074792;28;20040;-84
2022/12/18 06:27:33;;;;;;;70.85;28.30;;;-5.00;99.90;;;;;;5058849;28;20052;-85
2022/12/18 06:30:20;;;;;;;63.78;27.20;;;-5.00;99.90;;;;;;5061070;28;20040;-82
2022/12/18 06:33:06;;;;;;;71.38;25.30;;;-5.00;99.90;;;;;;5089797;28;20567;-78
2022/12/18 06:35:52;;;;;;;62.42;25.45;;;-5.00;99.90;;;;;;5072955;28;20096;-85
2022/12/18 06:38:41;;;;;;;68.47;25.98;;;-5.00;99.90;;;;;;5096885;28;20044;-82
2022/12/18 06:41:27;;;;;;;71.50;27.13;;;-5.00;99.90;;;;;;5093499;28;20553;-84
2022/12/18 06:44:13;;;;;;;59.33;24.75;;;-5.00;99.90;;;;;;5090270;28;20048;-79
2022/12/18 06:46:59;;;;;;;68.22;26.88;;;-4.90;99.90;;;;;;5090215;28;20138;-80
2022/12/18 06:49:45;;;;;;;64.57;24.25;;;-4.90;99.90;;;;;;5089972;28;20135;-79
2022/12/18 06:52:32;;;;;;;63.00;25.27;;;-4.90;99.90;;;;;;5058462;28;20048;-80
2022/12/18 06:55:18;;;;;;;60.65;23.70;;;-4.90;99.90;;;;;;5060113;28;20491;-85
2022/12/18 06:58:04;;;;;;;58.45;24.40;;;-4.90;99.90;;;;;;5086071;28;20091;-77
2022/12/18 07:00:51;;;;;;;56.45;25.10;;;-5.00;99.90;;;;;;5071157;28;20052;-83
2022/12/18 07:03:41;;;;;;;61.97;25.65;;;-5.00;99.90;;;;;;5072452;28;20404;-79
2022/12/18 07:06:27;;;;;;;57.80;22.77;;;-5.00;99.90;;;;;;5090474;28;20060;-84
2022/12/18 07:09:13;;;;;;;56.85;22.70;;;-5.10;99.90;;;;;;5062642;28;20177;-79
2022/12/18 07:12:00;;;;;;;61.63;25.00;;;-5.10;99.90;;;;;;5080844;28;20107;-83
2022/12/18 07:14:46;;;;;;;54.75;22.05;;;-5.10;99.90;;;;;;5058505;28;20109;-80
2022/12/18 07:17:32;;;;;;;54.60;23.42;;;-5.20;99.90;;;;;;5075832;28;20051;-77
2022/12/18 07:20:18;;;;;;;64.55;22.08;;;-5.20;99.90;;;;;;5090524;28;20425;-84
2022/12/18 07:23:05;;;;;;;64.20;23.85;;;-5.20;99.90;;;;;;5091045;28;20059;-79
2022/12/18 07:25:51;;;;;;;62.08;24.23;;;-5.20;99.90;;;;;;5075509;28;20051;-80
2022/12/18 07:28:39;;;;;;;60.95;22.48;;;-5.20;99.90;;;;;;5094494;28;20051;-82
2022/12/18 07:31:26;;;;;;;62.05;22.30;;;-5.20;99.90;;;;;;5080355;28;20056;-81
2022/12/18 07:34:14;;;;;;;60.72;24.83;;;-5.20;99.90;;;;;;5093241;28;20569;-78
2022/12/18 07:37:00;;;;;;;58.42;23.25;;;-5.20;99.90;;;;;;5076146;28;20396;-79
2022/12/18 07:39:46;;;;;;;58.30;25.90;;;-5.20;99.90;;;;;;5075929;28;20054;-78
2022/12/18 07:42:32;;;;;;;61.70;23.38;;;-5.20;99.90;;;;;;5094403;28;20048;-81
2022/12/18 07:45:19;;;;;;;57.50;22.88;;;-5.10;99.90;;;;;;5080325;28;20052;-80
2022/12/18 07:48:07;;;;;;;54.85;22.02;;;-5.10;99.90;;;;;;5049401;28;20052;-77
2022/12/18 07:50:53;;;;;;;64.03;23.30;;;-5.10;99.90;;;;;;5093461;28;20514;-78
2022/12/18 07:53:41;;;;;;;58.20;22.45;;;-5.10;99.90;;;;;;5074996;28;20133;-78
2022/12/18 07:56:27;;;;;;;61.33;22.00;;;-5.10;99.90;;;;;;5096465;28;20051;-77
2022/12/18 07:59:13;;;;;;;58.10;21.58;;;-5.00;99.90;;;;;;5076541;28;20165;-83
2022/12/18 08:01:59;;;;;;;50.20;20.83;;;-5.00;99.90;;;;;;5086054;28;20139;-84
2022/12/18 08:04:46;;;;;;;57.60;22.27;;;-4.90;99.90;;;;;;5061880;28;20412;-82
2022/12/18 08:07:32;;;;;;;51.10;21.85;;;-4.90;99.90;;;;;;5077837;28;20583;-82
2022/12/18 08:10:19;;;;;;;46.42;20.42;;;-4.90;99.90;;;;;;5093547;28;20526;-82
2022/12/18 08:13:05;;;;;;;59.88;24.75;;;-4.80;99.90;;;;;;5075343;28;20127;-82
2022/12/18 08:16:07;;;;;;;49.85;21.95;;;-4.80;99.90;;;;;;5078904;28;20369;-77
2022/12/18 08:18:54;;;;;;;57.35;24.05;;;-4.80;99.90;;;;;;5092235;28;20052;-78
2022/12/18 08:21:40;;;;;;;50.22;21.92;;;-4.80;99.90;;;;;;5094484;28;20127;-82
2022/12/18 08:24:26;;;;;;;54.25;22.00;;;-4.80;99.90;;;;;;5081791;28;20048;-82
2022/12/18 08:27:13;;;;;;;60.08;22.15;;;-4.80;99.90;;;;;;5074908;28;20111;-84
2022/12/18 08:29:59;;;;;;;52.35;21.92;;;-4.70;99.90;;;;;;5097776;28;20127;-80
2022/12/18 08:32:45;;;;;;;46.40;21.00;;;-4.70;99.90;;;;;;5092841;28;20114;-80
2022/12/18 08:35:36;;;;;;;48.25;19.90;;;-4.70;99.90;;;;;;5075548;28;20044;-84
2022/12/18 08:38:23;;;;;;;53.42;19.83;;;-4.70;99.90;;;;;;5074960;28;20538;-82
2022/12/18 08:41:11;;;;;;;46.28;21.63;;;-4.70;99.90;;;;;;5077197;28;20559;-85
2022/12/18 08:47:02;;;;;;;50.80;21.65;;;-4.60;99.90;;;;;;5095534;28;20519;-79
2022/12/18 08:49:49;;;;;;;53.25;23.65;;;-4.60;99.90;;;;;;5074757;28;20052;-76
2022/12/18 08:52:35;;;;;;;47.45;20.95;;;-4.50;99.90;;;;;;5078780;28;20052;-78
2022/12/18 08:55:21;;;;;;;57.38;21.48;;;-4.50;99.90;;;;;;5093414;28;20051;-82
2022/12/18 08:58:07;;;;;;;41.53;19.92;;;-4.40;99.90;;;;;;5080295;28;20119;-77
2022/12/18 09:00:53;;;;;;;50.30;24.15;;;-4.40;99.90;;;;;;5092466;28;20045;-82
2022/12/18 09:03:39;;;;;;;58.40;22.83;;;-4.30;99.90;;;;;;5092678;28;20116;-80
2022/12/18 09:06:26;;;;;;;51.78;24.40;;;-4.30;99.90;;;;;;5073628;28;20052;-77
2022/12/18 09:09:12;;;;;;;54.42;24.25;;;-4.20;99.90;;;;;;5098910;28;20055;-83
2022/12/18 09:11:58;;;;;;;45.88;19.42;;;-4.10;99.90;;;;;;5076290;28;20485;-82
2022/12/18 09:14:45;;;;;;;47.55;19.77;;;-4.10;99.90;;;;;;5075835;28;20049;-78
2022/12/18 09:17:33;;;;;;;52.15;21.98;;;-4.00;99.90;;;;;;5074490;28;20048;-79
2022/12/18 09:20:19;;;;;;;41.58;21.05;;;-3.90;99.90;;;;;;5091505;28;20142;-79
2022/12/18 09:23:07;;;;;;;39.75;20.33;;;-3.90;99.90;;;;;;5090984;28;20046;-80
2022/12/18 09:25:59;;;;;;;46.25;21.70;;;-3.80;99.90;;;;;;5092822;28;20056;-83
2022/12/18 09:28:45;;;;;;;42.88;21.23;;;-3.70;99.90;;;;;;5073230;28;20091;-79
2022/12/18 09:31:31;;;;;;;42.45;21.15;;;-3.50;99.90;;;;;;5097169;28;20048;-81
2022/12/18 09:34:17;;;;;;;41.25;20.33;;;-3.40;99.90;;;;;;5077673;28;20052;-84
2022/12/18 09:37:03;;;;;;;37.78;18.40;;;-3.40;99.90;;;;;;5061138;28;20131;-78
2022/12/18 09:39:50;;;;;;;44.60;18.27;;;-3.30;99.90;;;;;;5092293;28;20044;-78
2022/12/18 09:42:36;;;;;;;40.13;20.20;;;-3.30;99.90;;;;;;5075861;28;20478;-82
2022/12/18 09:45:23;;;;;;;40.03;18.20;;;-3.30;99.90;;;;;;5091206;28;20052;-81
2022/12/18 09:48:41;;;;;;;36.95;18.05;;;-3.30;99.90;;;;;;5097041;28;20388;-84
2022/12/18 09:51:35;;;;;;;35.65;19.08;;;-3.20;99.90;;;;;;5086121;28;20677;-79
2022/12/18 09:54:44;;;;;;;37.95;19.10;;;-3.20;99.90;;;;;;5072247;28;20059;-79
2022/12/18 09:57:33;;;;;;;43.53;18.80;;;-3.20;99.90;;;;;;5073221;28;20051;-77
2022/12/18 10:00:22;;;;;;;36.65;18.83;;;-3.10;99.90;;;;;;5096062;28;20055;-78
2022/12/18 10:03:15;;;;;;;40.78;18.27;;;-3.00;99.90;;;;;;5104617;28;20076;-85
2022/12/18 10:06:08;;;;;;;35.90;17.42;;;-2.70;99.90;;;;;;5072664;28;20048;-81
2022/12/18 10:09:42;;;;;;;37.65;19.38;;;-2.40;99.90;;;;;;5073898;28;20143;-78
2022/12/18 10:12:51;;;;;;;35.58;16.67;;;-2.00;99.90;;;;;;4992627;28;20474;-82
2022/12/18 10:15:46;;;;;;;39.75;17.27;;;-1.60;99.90;;;;;;5009410;28;20506;-80
2022/12/18 10:18:38;;;;;;;35.10;15.90;;;-1.20;99.90;;;;;;5093307;28;20051;-84
2022/12/18 10:21:47;;;;;;;34.95;16.77;;;-0.60;99.90;;;;;;5091036;28;20066;-81
2022/12/18 10:24:42;;;;;;;30.15;15.27;;;-0.20;99.90;;;;;;5072460;28;20051;-83
2022/12/18 10:27:29;;;;;;;34.17;15.30;;;-0.10;99.90;;;;;;5091760;28;20075;-81
2022/12/18 10:30:20;;;;;;;33.58;17.90;;;-0.10;99.90;;;;;;5076655;28;20044;-78
2022/12/18 10:33:20;;;;;;;28.85;15.25;;;-0.20;99.90;;;;;;5091467;28;20036;-79
2022/12/18 10:36:06;;;;;;;27.23;14.27;;;-0.50;99.90;;;;;;5100075;28;20043;-85
2022/12/18 10:38:52;;;;;;;29.52;15.02;;;-0.80;99.90;;;;;;5096178;28;20056;-78
2022/12/18 10:41:38;;;;;;;28.45;14.75;;;-1.10;99.90;;;;;;5074547;28;20072;-77
2022/12/18 10:44:26;;;;;;;29.00;13.60;;;-1.40;99.90;;;;;;5090902;28;20138;-78
2022/12/18 10:47:18;;;;;;;29.83;15.07;;;-1.50;99.90;;;;;;5072461;28;20059;-78
2022/12/18 10:50:04;;;;;;;26.42;14.40;;;-1.60;99.90;;;;;;5081923;28;20048;-79
2022/12/18 10:52:59;;;;;;;25.02;12.82;;;-1.70;99.90;;;;;;5091643;28;20059;-85
2022/12/18 10:55:46;;;;;;;31.30;14.70;;;-1.80;99.90;;;;;;5081477;28;20059;-83
2022/12/18 10:58:35;;;;;;;28.52;13.02;;;-1.80;99.90;;;;;;5071642;28;20466;-77
2022/12/18 11:01:21;;;;;;;28.45;13.43;;;-1.90;99.90;;;;;;5089788;28;20503;-78
2022/12/18 11:04:09;;;;;;;25.73;12.50;;;-1.90;99.90;;;;;;5071935;28;20084;-83
2022/12/18 11:07:04;;;;;;;23.77;11.85;;;-1.90;99.90;;;;;;5093708;28;20633;-85
2022/12/18 11:10:00;;;;;;;25.40;11.75;;;-1.90;99.90;;;;;;5072270;28;20483;-78
2022/12/18 11:12:48;;;;;;;21.63;11.07;;;-1.90;99.90;;;;;;5094540;28;20044;-82
2022/12/18 11:15:34;;;;;;;23.25;11.10;;;-2.00;99.90;;;;;;5091519;28;20056;-78
2022/12/18 11:18:24;;;;;;;22.58;10.77;;;-2.00;99.90;;;;;;5089169;28;20097;-82
2022/12/18 11:21:13;;;;;;;24.13;12.15;;;-1.90;99.90;;;;;;5076361;28;20067;-85
2022/12/18 11:23:59;;;;;;;19.40;9.85;;;-1.90;99.90;;;;;;5091168;28;20048;-78
2022/12/18 11:26:45;;;;;;;20.23;11.15;;;-1.90;99.90;;;;;;5077145;28;20055;-76
2022/12/18 11:29:37;;;;;;;23.55;11.27;;;-1.80;99.90;;;;;;5098157;28;20421;-77
2022/12/18 11:32:46;;;;;;;21.48;10.13;;;-1.80;99.90;;;;;;5086678;28;20052;-82
2022/12/18 11:35:56;;;;;;;21.95;12.05;;;-1.70;99.90;;;;;;5092490;28;20051;-82
2022/12/18 11:38:45;;;;;;;19.90;10.60;;;-1.70;99.90;;;;;;5091657;28;20380;-80
2022/12/18 11:42:14;;;;;;;23.02;10.52;;;-1.60;99.90;;;;;;5072085;28;20105;-79
2022/12/18 11:45:15;;;;;;;20.98;11.15;;;-1.60;99.90;;;;;;5074058;28;20066;-79
2022/12/18 11:48:16;;;;;;;19.98;10.25;;;-1.60;99.90;;;;;;5089866;28;20131;-79
2022/12/18 11:51:08;;;;;;;20.13;10.13;;;-1.50;99.90;;;;;;5083388;28;20052;-76
2022/12/18 11:53:55;;;;;;;22.35;12.00;;;-1.60;99.90;;;;;;5063584;28;20062;-84
2022/12/18 11:56:56;;;;;;;26.73;14.05;;;-1.60;99.90;;;;;;5074318;28;20385;-85
2022/12/18 12:00:08;;;;;;;32.05;17.70;;;-1.60;99.90;;;;;;5090039;28;20044;-83
2022/12/18 12:03:22;;;;;;;25.50;13.15;;;-1.60;99.90;;;;;;5089875;28;20047;-84
2022/12/18 12:06:21;;;;;;;36.22;18.70;;;-1.60;99.90;;;;;;5098726;28;20450;-84
2022/12/18 12:09:10;;;;;;;36.05;17.52;;;-1.60;99.90;;;;;;5071337;28;20056;-86
2022/12/18 12:12:04;;;;;;;28.08;14.30;;;-1.50;99.90;;;;;;5059923;28;20094;-77
2022/12/18 12:15:10;;;;;;;22.88;10.95;;;-1.50;99.90;;;;;;5076998;28;20048;-78
2022/12/18 12:18:08;;;;;;;37.45;17.80;;;-1.50;99.90;;;;;;5092431;28;20088;-82
2022/12/18 12:21:25;;;;;;;44.25;17.98;;;-1.60;99.90;;;;;;5076907;28;20053;-85
2022/12/18 12:24:26;;;;;;;18.33;9.57;;;-1.60;99.90;;;;;;5082205;28;20052;-85
2022/12/18 12:27:47;;;;;;;17.38;8.30;;;-1.60;99.90;;;;;;5092763;28;20454;-85
2022/12/18 12:30:56;;;;;;;19.50;8.50;;;-1.60;99.90;;;;;;5093246;28;20044;-79
2022/12/18 12:34:00;;;;;;;17.70;7.88;;;-1.50;99.90;;;;;;5076325;28;20048;-84
2022/12/18 12:36:51;;;;;;;12.13;6.18;;;-1.50;99.90;;;;;;5085168;28;20048;-84
2022/12/18 12:39:42;;;;;;;13.88;7.22;;;-1.50;99.90;;;;;;5093956;28;20047;-77
2022/12/18 12:46:05;;;;;;;89.68;46.78;;;-1.40;99.90;;;;;;5074014;28;20390;-79
2022/12/18 12:49:01;;;;;;;19.73;9.02;;;-1.40;99.90;;;;;;5074867;28;20044;-85
2022/12/18 12:51:59;;;;;;;14.23;7.30;;;-1.30;99.90;;;;;;5071099;28;20044;-79
2022/12/18 12:54:47;;;;;;;14.90;8.30;;;-1.20;99.90;;;;;;5074232;28;20396;-78
2022/12/18 12:57:39;;;;;;;18.30;10.63;;;-1.20;99.90;;;;;;5091267;28;20080;-79
2022/12/18 13:00:31;;;;;;;14.25;8.27;;;-1.10;99.90;;;;;;5077177;28;20143;-77
2022/12/18 13:03:29;;;;;;;10.43;6.80;;;-1.10;99.90;;;;;;5095239;28;20067;-77
2022/12/18 13:06:41;;;;;;;10.63;6.25;;;-1.00;99.90;;;;;;5080898;28;20091;-79
2022/12/18 13:09:54;;;;;;;12.35;5.65;;;-0.90;99.90;;;;;;5074020;28;20395;-77
2022/12/18 13:12:55;;;;;;;10.82;5.20;;;-0.90;99.90;;;;;;5092568;28;20047;-79
2022/12/18 13:15:46;;;;;;;14.00;5.82;;;-0.80;99.90;;;;;;5092496;28;20058;-79
2022/12/18 13:18:34;;;;;;;12.02;6.40;;;-0.80;99.90;;;;;;5092202;28;20067;-81
2022/12/18 13:21:26;;;;;;;15.90;6.35;;;-0.70;99.90;;;;;;5091508;28;20059;-82
2022/12/18 13:24:27;;;;;;;11.10;5.10;;;-0.80;99.90;;;;;;5097038;28;20048;-79
2022/12/18 13:27:45;;;;;;;12.27;5.97;;;-0.70;99.90;;;;;;5076597;28;20048;-84
2022/12/18 13:30:31;;;;;;;12.60;5.82;;;-0.70;99.90;;;;;;5077203;28;20048;-78
2022/12/18 13:33:17;;;;;;;15.77;7.32;;;-0.80;99.90;;;;;;5073460;28;20124;-81
2022/12/18 13:36:28;;;;;;;9.98;5.38;;;-0.80;99.90;;;;;;5060176;28;20044;-82
2022/12/18 13:39:14;;;;;;;13.23;5.05;;;-0.80;99.90;;;;;;5092727;28;20673;-84
2022/12/18 13:42:06;;;;;;;10.55;5.60;;;-0.70;99.90;;;;;;5098476;28;20138;-82
2022/12/18 13:44:52;;;;;;;12.23;5.32;;;-0.80;99.90;;;;;;5073263;28;20097;-82
2022/12/18 13:47:38;;;;;;;11.80;6.28;;;-0.80;99.90;;;;;;5091751;28;20503;-78
2022/12/18 13:50:25;;;;;;;10.23;5.32;;;-0.80;99.90;;;;;;5093165;28;20084;-81
2022/12/18 13:53:22;;;;;;;11.90;5.38;;;-0.80;99.90;;;;;;5073718;28;20048;-84
2022/12/18 13:56:09;;;;;;;10.02;5.32;;;-0.80;99.90;;;;;;5096696;28;20113;-79
2022/12/18 13:59:26;;;;;;;8.63;5.05;;;-0.80;99.90;;;;;;5072710;28;20058;-78
2022/12/18 14:02:16;;;;;;;10.23;4.30;;;-0.80;99.90;;;;;;5086931;28;20476;-81
2022/12/18 14:05:02;;;;;;;10.63;5.50;;;-0.80;99.90;;;;;;5073599;28;20495;-84
2022/12/18 14:07:49;;;;;;;9.57;4.50;;;-0.80;99.90;;;;;;5091048;28;20582;-83
2022/12/18 14:10:35;;;;;;;10.88;5.32;;;-0.80;99.90;;;;;;5078801;28;20052;-79
2022/12/18 14:13:30;;;;;;;10.95;5.40;;;-0.80;99.90;;;;;;5072558;28;20044;-79
2022/12/18 14:16:17;;;;;;;11.15;4.80;;;-0.80;99.90;;;;;;5099416;28;20048;-75
2022/12/18 14:19:05;;;;;;;9.75;5.28;;;-0.90;99.90;;;;;;5074096;28;20044;-81
2022/12/18 14:21:52;;;;;;;10.57;5.07;;;-0.80;99.90;;;;;;5072498;28;20484;-81
2022/12/18 14:24:38;;;;;;;12.02;4.65;;;-0.90;99.90;;;;;;5077468;28;20101;-78
2022/12/18 14:27:25;;;;;;;12.68;5.18;;;-0.90;99.90;;;;;;5090104;28;20048;-76
2022/12/18 14:30:24;;;;;;;10.10;4.93;;;-0.90;99.90;;;;;;5059742;28;20389;-76
2022/12/18 14:33:18;;;;;;;12.15;6.53;;;-0.90;99.90;;;;;;5059866;28;20052;-78